createdAt,value
2022-07-28T00:01:39.556Z,99.90
2022-07-28T00:04:09.155Z,99.90
2022-07-28T00:06:37.303Z,99.90
2022-07-28T00:09:05.831Z,99.90
2022-07-28T00:11:33.987Z,99.90
2022-07-28T00:14:18.407Z,99.90
2022-07-28T00:16:46.649Z,99.90
2022-07-28T00:19:16.315Z,99.90
2022-07-28T00:21:44.462Z,99.90
2022-07-28T00:24:13.154Z,99.90
2022-07-28T00:26:41.520Z,99.90
2022-07-28T00:29:09.734Z,99.90
2022-07-28T00:31:37.934Z,99.90
2022-07-28T00:34:06.238Z,99.90
2022-07-28T00:36:35.819Z,99.90
2022-07-28T00:39:04.010Z,99.90
2022-07-28T00:41:32.493Z,99.90
2022-07-28T00:44:01.083Z,99.90
2022-07-28T00:46:30.138Z,99.90
2022-07-28T00:48:58.423Z,99.90
2022-07-28T00:51:27.907Z,99.90
2022-07-28T00:53:57.956Z,99.90
2022-07-28T00:56:26.652Z,99.90
2022-07-28T00:58:55.010Z,99.90
2022-07-28T01:01:24.132Z,99.90
2022-07-28T01:03:54.755Z,99.90
2022-07-28T01:06:53.450Z,99.90
2022-07-28T01:09:35.338Z,99.90
2022-07-28T01:12:12.411Z,99.90
2022-07-28T01:14:48.815Z,99.90
2022-07-28T01:17:25.324Z,99.90
2022-07-28T01:20:06.239Z,99.90
2022-07-28T01:22:39.847Z,99.90
2022-07-28T01:25:22.340Z,99.90
2022-07-28T01:28:06.835Z,99.90
2022-07-28T01:30:42.517Z,99.90
2022-07-28T01:33:16.658Z,99.90
2022-07-28T01:35:49.029Z,99.90
2022-07-28T01:38:19.699Z,99.90
2022-07-28T01:40:50.249Z,99.90
2022-07-28T01:43:24.423Z,99.90
2022-07-28T01:45:56.910Z,99.90
2022-07-28T01:48:26.259Z,99.90
2022-07-28T01:50:56.790Z,99.90
2022-07-28T01:53:27.438Z,99.90
2022-07-28T01:55:57.041Z,99.90
2022-07-28T01:58:29.176Z,99.90
2022-07-28T02:01:00.245Z,99.90
2022-07-28T02:03:31.459Z,99.90
2022-07-28T02:06:03.153Z,99.90
2022-07-28T02:08:33.246Z,99.90
2022-07-28T02:11:19.817Z,99.90
2022-07-28T02:13:51.123Z,99.90
2022-07-28T02:16:24.324Z,99.90
2022-07-28T02:18:54.879Z,99.90
2022-07-28T02:21:26.544Z,99.90
2022-07-28T02:23:56.173Z,99.90
2022-07-28T02:26:38.246Z,99.90
2022-07-28T02:29:22.277Z,99.90
2022-07-28T02:32:06.309Z,99.90
2022-07-28T02:34:56.594Z,99.90
2022-07-28T02:37:27.943Z,99.90
2022-07-28T02:40:00.216Z,99.90
2022-07-28T02:42:33.614Z,99.90
2022-07-28T02:45:05.602Z,99.90
2022-07-28T02:47:42.362Z,99.90
2022-07-28T02:50:11.867Z,99.90
2022-07-28T02:52:41.330Z,99.90
2022-07-28T02:55:11.986Z,99.90
2022-07-28T02:57:42.475Z,99.90
2022-07-28T03:00:12.473Z,99.90
2022-07-28T03:02:44.094Z,99.90
2022-07-28T03:05:12.951Z,99.90
2022-07-28T03:07:50.600Z,99.90
2022-07-28T03:10:33.516Z,99.90
2022-07-28T03:13:04.335Z,99.90
2022-07-28T03:15:33.153Z,99.90
2022-07-28T03:18:04.293Z,99.90
2022-07-28T03:20:32.748Z,99.90
2022-07-28T03:23:02.271Z,99.90
2022-07-28T03:25:38.472Z,99.90
2022-07-28T03:28:09.062Z,99.90
2022-07-28T03:30:42.122Z,99.90
2022-07-28T03:33:12.733Z,99.90
2022-07-28T03:35:44.889Z,99.90
2022-07-28T03:38:17.969Z,99.90
2022-07-28T03:40:47.727Z,99.90
2022-07-28T03:43:18.036Z,99.90
2022-07-28T03:45:47.922Z,99.90
2022-07-28T03:48:18.038Z,99.90
2022-07-28T03:50:46.279Z,99.90
2022-07-28T03:53:22.253Z,99.90
2022-07-28T03:55:51.832Z,99.90
2022-07-28T03:58:20.137Z,99.90
2022-07-28T04:00:49.583Z,99.90
2022-07-28T04:03:34.993Z,99.90
2022-07-28T04:06:08.405Z,99.90
2022-07-28T04:08:36.600Z,99.90
2022-07-28T04:11:04.900Z,99.90
2022-07-28T04:13:33.064Z,99.90
2022-07-28T04:16:01.542Z,99.90
2022-07-28T04:18:31.078Z,99.90
2022-07-28T04:20:59.973Z,99.90
2022-07-28T04:23:28.134Z,99.90
2022-07-28T04:25:56.291Z,99.90
2022-07-28T04:28:24.434Z,99.90
2022-07-28T04:30:52.669Z,99.90
2022-07-28T04:33:21.071Z,99.90
2022-07-28T04:35:52.800Z,99.90
2022-07-28T04:38:21.143Z,99.90
2022-07-28T04:40:49.974Z,99.90
2022-07-28T04:43:18.213Z,99.90
2022-07-28T04:45:53.880Z,99.90
2022-07-28T04:48:23.203Z,99.90
2022-07-28T04:50:53.729Z,99.90
2022-07-28T04:53:22.821Z,99.90
2022-07-28T04:55:54.650Z,99.90
2022-07-28T04:58:23.658Z,97.10
2022-07-28T05:00:52.715Z,93.90
2022-07-28T05:03:21.439Z,92.40
2022-07-28T05:05:54.158Z,91.50
2022-07-28T05:08:25.750Z,92.00
2022-07-28T05:10:55.980Z,93.60
2022-07-28T05:13:25.389Z,94.00
2022-07-28T05:15:56.069Z,94.10
2022-07-28T05:18:24.475Z,94.80
2022-07-28T05:20:52.687Z,95.40
2022-07-28T05:23:20.859Z,97.50
2022-07-28T05:25:50.736Z,99.90
2022-07-28T05:28:18.903Z,99.90
2022-07-28T05:30:47.055Z,99.90
2022-07-28T05:33:16.418Z,99.90
2022-07-28T05:35:45.718Z,99.90
2022-07-28T05:38:14.326Z,99.90
2022-07-28T05:40:42.653Z,99.20
2022-07-28T05:43:12.194Z,94.80
2022-07-28T05:45:40.364Z,93.30
2022-07-28T05:48:08.665Z,92.70
2022-07-28T05:50:37.074Z,93.40
2022-07-28T05:53:05.267Z,93.10
2022-07-28T05:55:33.639Z,90.40
2022-07-28T05:58:01.787Z,88.10
2022-07-28T06:00:32.344Z,82.10
2022-07-28T06:03:02.057Z,80.80
2022-07-28T06:05:31.060Z,81.20
2022-07-28T06:08:00.241Z,85.30
2022-07-28T06:10:50.742Z,86.10
2022-07-28T06:13:19.636Z,81.60
2022-07-28T06:15:51.394Z,75.30
2022-07-28T06:18:19.675Z,75.10
2022-07-28T06:20:48.248Z,72.60
2022-07-28T06:23:19.295Z,73.40
2022-07-28T06:25:48.104Z,74.30
2022-07-28T06:28:16.298Z,75.50
2022-07-28T06:30:44.457Z,72.70
2022-07-28T06:33:17.157Z,68.90
2022-07-28T06:35:51.229Z,68.10
2022-07-28T06:38:20.470Z,67.70
2022-07-28T06:40:48.855Z,68.30
2022-07-28T06:43:17.016Z,71.20
2022-07-28T06:45:46.186Z,66.30
2022-07-28T06:48:15.783Z,61.10
2022-07-28T06:50:44.184Z,58.50
2022-07-28T06:53:13.377Z,58.40
2022-07-28T06:55:41.553Z,56.80
2022-07-28T06:58:09.761Z,56.30
2022-07-28T07:00:38.078Z,55.20
2022-07-28T07:03:09.564Z,53.70
2022-07-28T07:05:39.523Z,51.00
2022-07-28T07:08:07.712Z,48.10
2022-07-28T07:10:36.292Z,49.00
2022-07-28T07:13:04.470Z,49.10
2022-07-28T07:15:32.594Z,49.10
2022-07-28T07:18:03.206Z,47.60
2022-07-28T07:20:31.442Z,46.90
2022-07-28T07:23:01.076Z,47.30
2022-07-28T07:25:29.181Z,47.20
2022-07-28T07:27:57.356Z,46.60
2022-07-28T07:30:25.603Z,46.30
2022-07-28T07:32:53.898Z,46.20
2022-07-28T07:35:22.079Z,46.70
2022-07-28T07:37:50.226Z,45.30
2022-07-28T07:40:19.800Z,44.50
2022-07-28T07:42:47.964Z,45.10
2022-07-28T07:45:16.062Z,44.80
2022-07-28T07:47:44.249Z,44.00
2022-07-28T07:50:12.461Z,43.40
2022-07-28T07:52:40.599Z,43.70
2022-07-28T07:55:09.745Z,43.40
2022-07-28T07:57:39.569Z,43.70
2022-07-28T08:00:08.937Z,41.60
2022-07-28T08:02:57.116Z,41.70
2022-07-28T08:05:34.782Z,42.10
2022-07-28T08:08:05.326Z,42.10
2022-07-28T08:10:34.062Z,41.70
2022-07-28T08:13:04.831Z,42.40
2022-07-28T08:15:33.763Z,42.30
2022-07-28T08:18:02.127Z,44.40
2022-07-28T08:20:30.423Z,43.30
2022-07-28T08:22:59.405Z,41.50
2022-07-28T08:25:27.646Z,41.50
2022-07-28T08:27:55.855Z,40.60
2022-07-28T08:30:30.265Z,40.40
2022-07-28T08:33:02.475Z,41.30
2022-07-28T08:35:33.520Z,40.00
2022-07-28T08:38:03.935Z,39.90
2022-07-28T08:40:33.518Z,40.60
2022-07-28T08:43:08.388Z,40.50
2022-07-28T08:45:40.001Z,40.80
2022-07-28T08:48:11.827Z,41.50
2022-07-28T08:50:40.222Z,39.80
2022-07-28T08:53:08.988Z,39.50
2022-07-28T08:55:37.493Z,39.70
2022-07-28T08:58:06.007Z,40.50
2022-07-28T09:00:34.607Z,40.40
2022-07-28T09:03:05.578Z,39.40
2022-07-28T09:05:34.259Z,38.60
2022-07-28T09:08:03.042Z,38.80
2022-07-28T09:10:31.278Z,41.80
2022-07-28T09:12:59.479Z,41.50
2022-07-28T09:15:27.742Z,41.70
2022-07-28T09:17:56.234Z,41.40
2022-07-28T09:20:27.248Z,41.00
2022-07-28T09:23:00.163Z,39.20
2022-07-28T09:25:29.516Z,39.60
2022-07-28T09:28:00.381Z,39.50
2022-07-28T09:30:30.329Z,38.40
2022-07-28T09:33:41.229Z,38.50
2022-07-28T09:36:17.158Z,39.30
2022-07-28T09:38:45.901Z,40.60
2022-07-28T09:41:14.775Z,40.10
2022-07-28T09:43:44.659Z,39.70
2022-07-28T09:46:14.611Z,38.70
2022-07-28T09:48:55.400Z,38.80
2022-07-28T09:51:27.147Z,39.10
2022-07-28T09:54:07.137Z,39.80
2022-07-28T09:56:35.662Z,40.00
2022-07-28T09:59:04.483Z,39.00
2022-07-28T10:01:36.626Z,39.70
2022-07-28T10:04:05.725Z,40.30
2022-07-28T10:06:37.896Z,40.00
2022-07-28T10:09:07.931Z,40.10
2022-07-28T10:11:41.336Z,40.70
2022-07-28T10:14:10.314Z,41.50
2022-07-28T10:16:44.524Z,41.40
2022-07-28T10:19:12.714Z,40.20
2022-07-28T10:21:45.297Z,40.80
2022-07-28T10:24:22.086Z,40.60
2022-07-28T10:26:52.643Z,40.10
2022-07-28T10:29:23.163Z,40.20
2022-07-28T10:31:54.231Z,41.90
2022-07-28T10:34:25.360Z,41.50
2022-07-28T10:36:56.623Z,41.20
2022-07-28T10:39:29.927Z,43.00
2022-07-28T10:41:59.071Z,44.40
2022-07-28T10:44:28.539Z,45.40
2022-07-28T10:46:58.298Z,47.60
2022-07-28T10:49:32.313Z,48.80
2022-07-28T10:52:15.184Z,49.40
2022-07-28T10:54:56.492Z,48.60
2022-07-28T10:57:25.423Z,49.30
2022-07-28T11:00:13.188Z,50.90
2022-07-28T11:02:53.061Z,50.90
2022-07-28T11:05:28.949Z,52.60
2022-07-28T11:07:58.972Z,51.90
2022-07-28T11:10:27.218Z,52.60
2022-07-28T11:12:56.652Z,52.90
2022-07-28T11:15:34.258Z,53.50
2022-07-28T11:18:04.892Z,53.50
2022-07-28T11:21:08.088Z,53.70
2022-07-28T11:23:47.678Z,54.00
2022-07-28T11:26:35.123Z,54.70
2022-07-28T11:29:22.809Z,54.00
2022-07-28T11:32:01.157Z,53.30
2022-07-28T11:35:06.664Z,52.70
2022-07-28T11:38:10.963Z,53.70
2022-07-28T11:40:44.567Z,54.40
2022-07-28T11:43:37.395Z,54.20
2022-07-28T11:46:31.331Z,53.50
2022-07-28T11:49:28.039Z,54.50
2022-07-28T11:52:24.444Z,53.70
2022-07-28T11:54:56.981Z,54.20
2022-07-28T11:57:28.780Z,53.20
2022-07-28T12:00:02.295Z,53.60
2022-07-28T12:02:36.173Z,53.00
2022-07-28T12:05:08.167Z,52.50
2022-07-28T12:07:39.270Z,53.10
2022-07-28T12:10:54.663Z,52.30
2022-07-28T12:13:25.995Z,52.20
2022-07-28T12:15:54.231Z,51.70
2022-07-28T12:18:24.758Z,51.20
2022-07-28T12:20:54.933Z,52.00
2022-07-28T12:23:39.161Z,51.70
2022-07-28T12:26:31.777Z,51.30
2022-07-28T12:29:01.256Z,52.00
2022-07-28T12:31:33.496Z,52.20
2022-07-28T12:34:02.163Z,52.10
2022-07-28T12:36:31.058Z,51.20
2022-07-28T12:39:00.322Z,51.50
2022-07-28T12:41:35.021Z,51.30
2022-07-28T12:44:06.081Z,51.30
2022-07-28T12:46:34.738Z,51.10
2022-07-28T12:49:03.425Z,50.50
2022-07-28T12:51:33.209Z,51.20
2022-07-28T12:54:03.000Z,52.40
2022-07-28T12:56:32.845Z,50.80
2022-07-28T12:59:09.026Z,51.50
2022-07-28T13:01:51.440Z,50.60
2022-07-28T13:04:39.383Z,51.60
2022-07-28T13:07:10.797Z,50.70
2022-07-28T13:09:47.131Z,51.40
2022-07-28T13:12:22.772Z,50.20
2022-07-28T13:14:52.924Z,50.30
2022-07-28T13:17:22.528Z,50.50
2022-07-28T13:19:51.657Z,49.60
2022-07-28T13:22:29.847Z,49.80
2022-07-28T13:24:58.261Z,50.20
2022-07-28T13:27:28.431Z,49.70
2022-07-28T13:29:57.256Z,50.20
2022-07-28T13:32:25.588Z,49.90
2022-07-28T13:34:54.038Z,50.90
2022-07-28T13:37:22.316Z,50.40
2022-07-28T13:39:54.516Z,50.30
2022-07-28T13:42:23.654Z,49.60
2022-07-28T13:44:53.402Z,50.50
2022-07-28T13:47:21.483Z,50.30
2022-07-28T13:49:49.623Z,49.70
2022-07-28T13:52:29.376Z,49.70
2022-07-28T13:55:06.170Z,50.10
2022-07-28T13:57:35.865Z,50.10
2022-07-28T14:00:08.042Z,50.00
2022-07-28T14:02:36.854Z,49.70
2022-07-28T14:05:06.074Z,49.40
2022-07-28T14:07:34.219Z,48.90
2022-07-28T14:10:02.399Z,49.00
2022-07-28T14:12:30.915Z,49.50
2022-07-28T14:14:59.321Z,49.50
2022-07-28T14:17:46.065Z,50.60
2022-07-28T14:20:16.012Z,50.50
2022-07-28T14:22:44.669Z,49.60
2022-07-28T14:25:19.801Z,49.90
2022-07-28T14:27:50.949Z,49.00
2022-07-28T14:30:20.176Z,49.00
2022-07-28T14:32:50.568Z,50.20
2022-07-28T14:35:19.318Z,49.90
2022-07-28T14:38:42.061Z,48.80
2022-07-28T14:40:39.814Z,49.20
2022-07-28T14:43:08.995Z,50.20
2022-07-28T14:46:01.564Z,49.60
2022-07-28T14:48:27.745Z,49.80
2022-07-28T14:50:57.206Z,49.70
2022-07-28T14:53:27.734Z,51.40
2022-07-28T14:55:56.872Z,50.00
2022-07-28T14:58:25.884Z,49.50
2022-07-28T15:00:54.484Z,49.70
2022-07-28T15:03:22.999Z,48.80
2022-07-28T15:05:52.598Z,49.20
2022-07-28T15:08:20.719Z,49.90
2022-07-28T15:10:54.018Z,48.90
2022-07-28T15:13:22.203Z,49.80
2022-07-28T15:15:50.705Z,49.30
2022-07-28T15:18:18.823Z,47.90
2022-07-28T15:20:49.311Z,49.20
2022-07-28T15:23:18.976Z,49.20
2022-07-28T15:25:47.613Z,49.20
2022-07-28T15:28:17.589Z,49.00
2022-07-28T15:30:51.848Z,48.50
2022-07-28T15:33:21.342Z,48.60
2022-07-28T15:35:58.451Z,49.00
2022-07-28T15:38:31.771Z,48.60
2022-07-28T15:41:00.240Z,48.60
2022-07-28T15:43:28.630Z,48.70
2022-07-28T15:45:57.845Z,48.70
2022-07-28T15:48:26.283Z,48.20
2022-07-28T15:50:57.147Z,48.00
2022-07-28T15:53:25.262Z,49.30
2022-07-28T15:55:55.139Z,48.90
2022-07-28T15:58:26.419Z,49.80
2022-07-28T16:00:55.245Z,49.90
2022-07-28T16:03:23.728Z,50.30
2022-07-28T16:05:52.019Z,50.00
2022-07-28T16:08:22.925Z,49.80
2022-07-28T16:10:52.886Z,49.50
2022-07-28T16:13:35.736Z,49.90
2022-07-28T16:16:07.339Z,50.10
2022-07-28T16:18:36.618Z,50.40
2022-07-28T16:21:04.996Z,50.40
2022-07-28T16:23:33.503Z,49.40
2022-07-28T16:26:01.832Z,50.60
2022-07-28T16:28:31.479Z,50.50
2022-07-28T16:30:59.669Z,51.10
2022-07-28T16:33:27.862Z,50.30
2022-07-28T16:36:01.956Z,51.00
2022-07-28T16:38:30.226Z,50.40
2022-07-28T16:40:58.370Z,50.60
2022-07-28T16:43:26.602Z,51.00
2022-07-28T16:45:56.200Z,51.20
2022-07-28T16:48:24.496Z,51.40
2022-07-28T16:50:52.637Z,52.30
2022-07-28T16:53:20.839Z,51.70
2022-07-28T16:55:49.067Z,52.00
2022-07-28T16:58:18.146Z,52.60
2022-07-28T17:00:46.286Z,52.30
2022-07-28T17:03:17.083Z,52.30
2022-07-28T17:05:45.611Z,52.20
2022-07-28T17:08:13.815Z,52.60
2022-07-28T17:10:41.947Z,52.50
2022-07-28T17:13:13.229Z,52.70
2022-07-28T17:15:41.711Z,52.80
2022-07-28T17:18:09.895Z,52.70
2022-07-28T17:20:43.032Z,52.80
2022-07-28T17:23:11.297Z,52.40
2022-07-28T17:26:09.060Z,52.80
2022-07-28T17:28:28.794Z,52.80
2022-07-28T17:30:57.204Z,53.10
2022-07-28T17:33:26.068Z,53.00
2022-07-28T17:35:56.568Z,53.40
2022-07-28T17:38:29.614Z,53.20
2022-07-28T17:41:04.405Z,53.30
2022-07-28T17:43:32.988Z,53.60
2022-07-28T17:46:02.882Z,53.80
2022-07-28T17:48:36.661Z,54.10
2022-07-28T17:51:06.339Z,54.20
2022-07-28T17:53:39.323Z,54.20
2022-07-28T17:56:08.900Z,54.40
2022-07-28T17:58:37.505Z,54.50
2022-07-28T18:01:12.002Z,54.70
2022-07-28T18:03:56.691Z,54.70
2022-07-28T18:06:32.508Z,55.00
2022-07-28T18:09:06.778Z,55.30
2022-07-28T18:11:55.149Z,55.60
2022-07-28T18:14:25.458Z,55.80
2022-07-28T18:16:53.746Z,56.00
2022-07-28T18:19:21.922Z,55.80
2022-07-28T18:21:51.973Z,56.00
2022-07-28T18:24:22.029Z,56.10
2022-07-28T18:26:50.953Z,56.50
2022-07-28T18:29:20.396Z,56.50
2022-07-28T18:31:49.892Z,56.80
2022-07-28T18:34:18.566Z,56.90
2022-07-28T18:36:47.008Z,57.50
2022-07-28T18:39:16.513Z,57.60
2022-07-28T18:41:46.331Z,57.90
2022-07-28T18:44:16.681Z,58.00
2022-07-28T18:46:45.711Z,58.70
2022-07-28T18:49:14.118Z,59.10
2022-07-28T18:51:44.906Z,59.40
2022-07-28T18:54:21.585Z,60.20
2022-07-28T18:56:55.653Z,60.20
2022-07-28T18:59:24.137Z,60.90
2022-07-28T19:01:52.486Z,62.30
2022-07-28T19:04:20.963Z,61.80
2022-07-28T19:06:49.115Z,62.60
2022-07-28T19:09:18.803Z,63.60
2022-07-28T19:11:47.246Z,64.40
2022-07-28T19:14:16.494Z,64.20
2022-07-28T19:16:45.417Z,64.80
2022-07-28T19:19:14.620Z,65.40
2022-07-28T19:21:43.829Z,65.90
2022-07-28T19:24:13.070Z,66.40
2022-07-28T19:26:44.382Z,66.80
2022-07-28T19:29:12.633Z,67.30
2022-07-28T19:31:41.670Z,67.80
2022-07-28T19:34:10.143Z,68.40
2022-07-28T19:36:40.321Z,69.50
2022-07-28T19:39:08.619Z,70.10
2022-07-28T19:41:36.753Z,71.30
2022-07-28T19:44:06.523Z,72.80
2022-07-28T19:46:34.717Z,72.70
2022-07-28T19:49:03.040Z,73.40
2022-07-28T19:51:31.230Z,74.20
2022-07-28T19:54:00.379Z,74.50
2022-07-28T19:56:31.519Z,75.30
2022-07-28T19:59:00.049Z,76.20
2022-07-28T20:01:30.188Z,76.50
2022-07-28T20:04:03.493Z,76.80
2022-07-28T20:06:33.375Z,76.90
2022-07-28T20:09:01.659Z,76.70
2022-07-28T20:11:29.939Z,77.30
2022-07-28T20:13:58.075Z,77.60
2022-07-28T20:16:26.483Z,78.40
2022-07-28T20:18:56.969Z,79.30
2022-07-28T20:21:26.419Z,80.00
2022-07-28T20:23:55.831Z,80.50
2022-07-28T20:26:26.017Z,80.80
2022-07-28T20:28:54.903Z,81.50
2022-07-28T20:31:23.028Z,80.80
2022-07-28T20:33:51.230Z,80.40
2022-07-28T20:36:21.701Z,80.90
2022-07-28T20:38:51.122Z,82.80
2022-07-28T20:41:19.203Z,85.20
2022-07-28T20:44:05.065Z,86.60
2022-07-28T20:46:35.548Z,88.70
2022-07-28T20:49:03.889Z,90.70
2022-07-28T20:51:33.450Z,92.20
2022-07-28T20:54:01.601Z,93.30
2022-07-28T20:56:29.801Z,95.20
2022-07-28T20:59:00.560Z,97.00
2022-07-28T21:01:34.383Z,98.80
2022-07-28T21:04:02.591Z,99.90
2022-07-28T21:06:30.755Z,99.90
2022-07-28T21:09:02.055Z,99.90
2022-07-28T21:11:35.028Z,99.90
2022-07-28T21:14:04.077Z,99.90
2022-07-28T21:16:32.922Z,99.90
2022-07-28T21:19:02.199Z,99.90
2022-07-28T21:21:30.298Z,99.90
2022-07-28T21:23:59.817Z,99.90
2022-07-28T21:26:27.917Z,99.90
2022-07-28T21:29:12.482Z,99.90
2022-07-28T21:32:02.354Z,99.90
2022-07-28T21:34:29.896Z,99.90
2022-07-28T21:36:58.858Z,99.90
2022-07-28T21:39:28.453Z,99.90
2022-07-28T21:41:56.645Z,99.90
2022-07-28T21:44:24.817Z,99.90
2022-07-28T21:46:52.964Z,99.90
2022-07-28T21:49:21.215Z,99.90
2022-07-28T21:51:49.387Z,99.90
2022-07-28T21:54:17.893Z,99.90
2022-07-28T21:56:48.461Z,99.90
2022-07-28T21:59:16.621Z,99.90
2022-07-28T22:01:44.818Z,99.90
2022-07-28T22:04:13.249Z,99.90
2022-07-28T22:06:50.513Z,99.90
2022-07-28T22:09:18.615Z,99.90
2022-07-28T22:11:48.142Z,99.90
2022-07-28T22:14:16.499Z,99.90
2022-07-28T22:16:44.905Z,99.90
2022-07-28T22:19:13.066Z,99.90
2022-07-28T22:21:41.314Z,99.90
2022-07-28T22:24:09.880Z,99.90
2022-07-28T22:26:38.028Z,99.90
2022-07-28T22:29:07.512Z,99.90
2022-07-28T22:31:35.701Z,99.90
2022-07-28T22:34:04.058Z,99.90
2022-07-28T22:36:32.162Z,99.90
2022-07-28T22:39:00.313Z,99.90
2022-07-28T22:41:28.780Z,99.90
2022-07-28T22:43:57.430Z,99.90
2022-07-28T22:46:26.949Z,99.90
2022-07-28T22:48:55.236Z,99.90
2022-07-28T22:51:23.337Z,99.90
2022-07-28T22:53:51.458Z,99.90
2022-07-28T22:56:19.619Z,99.90
2022-07-28T22:58:47.746Z,99.90
2022-07-28T23:01:15.946Z,99.90
2022-07-28T23:03:47.400Z,99.90
2022-07-28T23:06:15.744Z,99.90
2022-07-28T23:08:44.421Z,99.90
2022-07-28T23:11:12.528Z,99.90
2022-07-28T23:13:40.983Z,99.90
2022-07-28T23:16:09.456Z,99.90
2022-07-28T23:18:39.976Z,99.90
2022-07-28T23:21:10.281Z,99.90
2022-07-28T23:23:38.721Z,99.90
2022-07-28T23:26:07.324Z,99.90
2022-07-28T23:28:36.415Z,99.90
2022-07-28T23:31:04.740Z,99.90
2022-07-28T23:33:55.798Z,99.90
2022-07-28T23:36:26.790Z,99.90
2022-07-28T23:38:57.301Z,99.90
2022-07-28T23:41:25.981Z,99.90
2022-07-28T23:43:54.902Z,99.90
2022-07-28T23:46:23.548Z,99.90
2022-07-28T23:48:51.980Z,99.90
2022-07-28T23:51:21.258Z,99.90
2022-07-28T23:53:56.198Z,99.90
2022-07-28T23:56:24.554Z,99.90
2022-07-28T23:58:52.720Z,99.90
